createdAt,value
2023-04-08T00:00:22.102Z,1.65
2023-04-08T00:01:22.160Z,1.70
2023-04-08T00:02:22.372Z,1.79
2023-04-08T00:03:22.399Z,1.77
2023-04-08T00:04:22.399Z,1.61
2023-04-08T00:05:22.370Z,1.54
2023-04-08T00:06:22.426Z,1.59
2023-04-08T00:07:22.465Z,1.64
2023-04-08T00:08:22.518Z,1.57
2023-04-08T00:09:22.527Z,1.72
2023-04-08T00:10:22.594Z,1.78
2023-04-08T00:11:22.645Z,1.66
2023-04-08T00:12:22.703Z,1.75
2023-04-08T00:13:22.717Z,1.76
2023-04-08T00:14:22.748Z,1.74
2023-04-08T00:15:22.814Z,1.78
2023-04-08T00:16:22.951Z,1.72
2023-04-08T00:17:22.968Z,1.86
2023-04-08T00:18:22.966Z,1.90
2023-04-08T00:19:23.016Z,1.95
2023-04-08T00:20:23.078Z,1.95
2023-04-08T00:21:23.160Z,1.91
2023-04-08T00:22:23.169Z,1.85
2023-04-08T00:23:23.214Z,1.79
2023-04-08T00:24:23.281Z,1.78
2023-04-08T00:25:25.240Z,1.78
2023-04-08T00:26:23.412Z,1.93
2023-04-08T00:27:23.438Z,1.91
2023-04-08T00:28:23.505Z,1.91
2023-04-08T00:29:23.550Z,1.95
2023-04-08T00:30:23.589Z,1.97
2023-04-08T00:31:23.841Z,1.94
2023-04-08T00:32:23.727Z,1.91
2023-04-08T00:33:23.781Z,2.08
2023-04-08T00:34:23.808Z,1.94
2023-04-08T00:35:23.940Z,1.92
2023-04-08T00:36:23.908Z,1.87
2023-04-08T00:37:23.931Z,1.85
2023-04-08T00:38:23.974Z,1.92
2023-04-08T00:39:24.026Z,1.91
2023-04-08T00:40:24.071Z,1.93
2023-04-08T00:41:24.100Z,1.93
2023-04-08T00:42:24.147Z,1.82
2023-04-08T00:43:24.187Z,1.83
2023-04-08T00:44:24.210Z,1.87
2023-04-08T00:45:24.269Z,1.88
2023-04-08T00:46:24.339Z,1.94
2023-04-08T00:47:24.391Z,1.89
2023-04-08T00:48:24.376Z,1.97
2023-04-08T00:49:24.452Z,1.92
2023-04-08T00:50:24.453Z,1.87
2023-04-08T00:51:24.494Z,1.83
2023-04-08T00:52:24.536Z,1.73
2023-04-08T00:53:25.651Z,1.70
2023-04-08T00:54:24.638Z,1.72
2023-04-08T00:55:24.686Z,1.74
2023-04-08T00:56:24.724Z,1.75
2023-04-08T00:57:24.770Z,1.78
2023-04-08T00:58:24.817Z,1.89
2023-04-08T00:59:24.849Z,1.77
2023-04-08T01:00:24.882Z,1.77
2023-04-08T01:01:25.015Z,1.71
2023-04-08T01:02:25.131Z,1.61
2023-04-08T01:03:25.177Z,1.56
2023-04-08T01:04:25.145Z,1.64
2023-04-08T01:05:25.121Z,1.68
2023-04-08T01:06:25.163Z,1.73
2023-04-08T01:07:25.216Z,1.70
2023-04-08T01:08:25.261Z,1.67
2023-04-08T01:09:25.302Z,1.65
2023-04-08T01:10:25.350Z,1.67
2023-04-08T01:11:25.415Z,1.63
2023-04-08T01:12:25.456Z,1.57
2023-04-08T01:13:25.489Z,1.61
2023-04-08T01:14:25.514Z,1.64
2023-04-08T01:15:25.555Z,1.55
2023-04-08T01:16:25.736Z,1.55
2023-04-08T01:17:25.664Z,1.50
2023-04-08T01:18:25.681Z,1.52
2023-04-08T01:19:25.733Z,1.49
2023-04-08T01:20:25.780Z,1.54
2023-04-08T01:21:25.831Z,1.47
2023-04-08T01:22:25.879Z,1.54
2023-04-08T01:23:25.945Z,1.63
2023-04-08T01:24:26.017Z,1.73
2023-04-08T01:25:26.044Z,1.67
2023-04-08T01:26:26.065Z,1.72
2023-04-08T01:27:26.097Z,1.76
2023-04-08T01:28:26.145Z,1.65
2023-04-08T01:29:26.225Z,1.58
2023-04-08T01:30:26.244Z,1.62
2023-04-08T01:31:26.332Z,1.65
2023-04-08T01:32:26.383Z,1.73
2023-04-08T01:33:26.376Z,1.74
2023-04-08T01:34:26.422Z,1.82
2023-04-08T01:35:26.504Z,1.79
2023-04-08T01:36:26.518Z,1.67
2023-04-08T01:37:26.562Z,1.68
2023-04-08T01:38:26.615Z,1.71
2023-04-08T01:39:26.669Z,1.65
2023-04-08T01:40:26.699Z,1.77
2023-04-08T01:41:26.730Z,1.82
2023-04-08T01:42:26.774Z,1.76
2023-04-08T01:43:26.805Z,1.87
2023-04-08T01:44:26.875Z,1.73
2023-04-08T01:45:26.884Z,1.77
2023-04-08T01:46:27.015Z,1.87
2023-04-08T01:47:27.012Z,1.78
2023-04-08T01:48:27.032Z,1.75
2023-04-08T01:49:27.080Z,1.92
2023-04-08T01:50:27.113Z,1.90
2023-04-08T01:51:27.146Z,2.07
2023-04-08T01:52:27.186Z,1.95
2023-04-08T01:53:27.253Z,1.93
2023-04-08T01:54:27.288Z,1.98
2023-04-08T01:55:27.343Z,1.93
2023-04-08T01:56:27.384Z,1.88
2023-04-08T01:57:27.436Z,1.88
2023-04-08T01:58:27.481Z,1.91
2023-04-08T01:59:27.542Z,1.78
2023-04-08T02:00:27.624Z,1.81
2023-04-08T02:01:27.730Z,1.91
2023-04-08T02:02:27.811Z,1.98
2023-04-08T02:03:28.205Z,1.93
2023-04-08T02:04:28.062Z,1.91
2023-04-08T02:05:27.904Z,1.88
2023-04-08T02:06:27.921Z,1.91
2023-04-08T02:07:28.384Z,1.92
2023-04-08T02:08:27.976Z,1.80
2023-04-08T02:09:28.034Z,1.80
2023-04-08T02:10:28.070Z,1.88
2023-04-08T02:11:28.117Z,1.83
2023-04-08T02:12:28.178Z,2.03
2023-04-08T02:13:28.212Z,1.83
2023-04-08T02:14:28.254Z,1.89
2023-04-08T02:15:28.308Z,1.84
2023-04-08T02:16:28.334Z,1.79
2023-04-08T02:17:28.429Z,1.84
2023-04-08T02:18:28.438Z,1.84
2023-04-08T02:19:28.484Z,1.91
2023-04-08T02:20:28.523Z,1.87
2023-04-08T02:21:28.539Z,1.94
2023-04-08T02:22:28.600Z,1.86
2023-04-08T02:23:28.627Z,1.83
2023-04-08T02:24:28.680Z,1.83
2023-04-08T02:25:28.750Z,1.85
2023-04-08T02:26:28.787Z,1.92
2023-04-08T02:27:28.870Z,2.03
2023-04-08T02:28:28.939Z,2.02
2023-04-08T02:29:28.928Z,2.01
2023-04-08T02:30:28.954Z,1.90
2023-04-08T02:31:29.013Z,1.90
2023-04-08T02:32:29.094Z,1.94
2023-04-08T02:33:29.114Z,2.03
2023-04-08T02:34:29.114Z,1.93
2023-04-08T02:35:29.194Z,1.86
2023-04-08T02:36:29.222Z,1.90
2023-04-08T02:37:29.270Z,1.88
2023-04-08T02:38:29.330Z,1.84
2023-04-08T02:39:29.355Z,1.91
2023-04-08T02:40:29.408Z,1.97
2023-04-08T02:41:29.459Z,1.89
2023-04-08T02:42:29.522Z,1.88
2023-04-08T02:43:29.522Z,1.92
2023-04-08T02:44:29.535Z,1.82
2023-04-08T02:45:29.574Z,1.86
2023-04-08T02:46:29.576Z,1.92
2023-04-08T02:47:29.636Z,1.94
2023-04-08T02:48:29.622Z,1.95
2023-04-08T02:49:29.705Z,1.93
2023-04-08T02:50:29.722Z,1.87
2023-04-08T02:51:29.771Z,1.89
2023-04-08T02:52:29.829Z,1.99
2023-04-08T02:53:29.880Z,1.91
2023-04-08T02:54:29.948Z,2.04
2023-04-08T02:55:30.001Z,2.11
2023-04-08T02:56:30.067Z,2.13
2023-04-08T02:57:30.138Z,2.17
2023-04-08T02:58:30.168Z,2.19
2023-04-08T02:59:30.236Z,2.19
2023-04-08T03:00:30.279Z,2.16
2023-04-08T03:01:30.567Z,2.10
2023-04-08T03:02:30.472Z,2.09
2023-04-08T03:03:30.519Z,2.10
2023-04-08T03:04:30.514Z,2.09
2023-04-08T03:05:30.496Z,2.18
2023-04-08T03:06:30.564Z,2.09
2023-04-08T03:07:30.637Z,2.16
2023-04-08T03:08:30.691Z,2.16
2023-04-08T03:09:30.786Z,2.18
2023-04-08T03:10:30.841Z,2.17
2023-04-08T03:11:30.898Z,2.27
2023-04-08T03:12:30.949Z,2.22
2023-04-08T03:13:30.993Z,2.19
2023-04-08T03:14:31.029Z,2.16
2023-04-08T03:15:31.090Z,2.21
2023-04-08T03:16:31.201Z,2.21
2023-04-08T03:17:31.218Z,2.20
2023-04-08T03:18:31.220Z,2.14
2023-04-08T03:19:31.280Z,2.15
2023-04-08T03:20:31.310Z,2.01
2023-04-08T03:21:31.401Z,2.06
2023-04-08T03:22:31.431Z,2.02
2023-04-08T03:23:31.480Z,2.09
2023-04-08T03:24:31.516Z,2.05
2023-04-08T03:25:31.575Z,2.06
2023-04-08T03:26:31.625Z,1.96
2023-04-08T03:27:31.669Z,1.92
2023-04-08T03:28:31.709Z,2.03
2023-04-08T03:29:31.745Z,2.05
2023-04-08T03:30:31.788Z,2.06
2023-04-08T03:31:31.871Z,2.05
2023-04-08T03:32:31.978Z,2.15
2023-04-08T03:33:31.941Z,2.07
2023-04-08T03:34:31.956Z,2.12
2023-04-08T03:35:32.011Z,2.01
2023-04-08T03:36:32.037Z,2.02
2023-04-08T03:37:32.114Z,1.96
2023-04-08T03:38:32.124Z,1.90
2023-04-08T03:39:32.184Z,1.92
2023-04-08T03:40:32.226Z,1.93
2023-04-08T03:41:32.258Z,2.01
2023-04-08T03:42:32.339Z,1.96
2023-04-08T03:43:32.362Z,1.89
2023-04-08T03:44:32.405Z,1.92
2023-04-08T03:45:32.430Z,1.99
2023-04-08T03:46:32.609Z,1.97
2023-04-08T03:47:32.573Z,1.91
2023-04-08T03:48:32.582Z,1.93
2023-04-08T03:49:32.616Z,1.91
2023-04-08T03:50:32.659Z,1.91
2023-04-08T03:51:32.695Z,1.92
2023-04-08T03:52:32.770Z,1.92
2023-04-08T03:53:32.814Z,2.01
2023-04-08T03:54:32.847Z,2.09
2023-04-08T03:55:32.898Z,2.10
2023-04-08T03:56:32.964Z,2.05
2023-04-08T03:57:33.016Z,2.01
2023-04-08T03:58:33.022Z,1.97
2023-04-08T03:59:33.057Z,2.03
2023-04-08T04:00:33.100Z,2.15
2023-04-08T04:01:33.154Z,2.12
2023-04-08T04:02:33.326Z,2.09
2023-04-08T04:03:33.346Z,2.11
2023-04-08T04:04:33.328Z,2.09
2023-04-08T04:05:33.341Z,2.10
2023-04-08T04:06:33.376Z,2.07
2023-04-08T04:07:33.456Z,2.12
2023-04-08T04:08:33.478Z,2.16
2023-04-08T04:09:33.538Z,2.10
2023-04-08T04:10:33.580Z,2.00
2023-04-08T04:11:33.620Z,1.97
2023-04-08T04:12:33.672Z,2.05
2023-04-08T04:13:33.716Z,2.02
2023-04-08T04:14:33.737Z,2.02
2023-04-08T04:15:33.816Z,1.98
2023-04-08T04:16:33.830Z,1.93
2023-04-08T04:17:33.896Z,1.92
2023-04-08T04:18:33.939Z,1.93
2023-04-08T04:19:33.969Z,1.95
2023-04-08T04:20:34.036Z,1.89
2023-04-08T04:21:34.054Z,1.93
2023-04-08T04:22:34.093Z,1.92
2023-04-08T04:23:34.138Z,2.03
2023-04-08T04:24:34.177Z,2.04
2023-04-08T04:25:34.226Z,2.00
2023-04-08T04:26:34.273Z,1.91
2023-04-08T04:27:34.313Z,1.95
2023-04-08T04:28:34.368Z,1.90
2023-04-08T04:29:34.408Z,1.95
2023-04-08T04:30:34.458Z,1.89
2023-04-08T04:31:34.532Z,1.81
2023-04-08T04:32:34.568Z,1.84
2023-04-08T04:33:34.588Z,1.79
2023-04-08T04:34:34.606Z,1.77
2023-04-08T04:35:34.732Z,1.80
2023-04-08T04:36:34.694Z,1.80
2023-04-08T04:37:34.745Z,1.77
2023-04-08T04:38:34.789Z,1.83
2023-04-08T04:39:34.861Z,1.86
2023-04-08T04:40:34.859Z,1.95
2023-04-08T04:41:34.885Z,1.99
2023-04-08T04:42:34.914Z,1.83
2023-04-08T04:43:34.968Z,1.88
2023-04-08T04:44:35.033Z,1.98
2023-04-08T04:45:35.081Z,2.14
2023-04-08T04:46:35.155Z,2.15
2023-04-08T04:47:35.200Z,2.24
2023-04-08T04:48:35.198Z,2.18
2023-04-08T04:49:35.228Z,2.21
2023-04-08T04:50:35.282Z,2.10
2023-04-08T04:51:35.351Z,2.13
2023-04-08T04:52:35.378Z,2.18
2023-04-08T04:53:35.445Z,2.28
2023-04-08T04:54:35.484Z,2.20
2023-04-08T04:55:37.508Z,2.21
2023-04-08T04:56:35.554Z,2.22
2023-04-08T04:57:35.523Z,2.31
2023-04-08T04:58:35.490Z,2.27
2023-04-08T04:59:35.502Z,2.19
2023-04-08T05:00:35.473Z,2.32
2023-04-08T05:01:35.543Z,2.31
2023-04-08T05:02:35.565Z,2.40
2023-04-08T05:03:35.550Z,2.41
2023-04-08T05:04:35.507Z,2.45
2023-04-08T05:05:35.455Z,2.43
2023-04-08T05:06:35.456Z,2.39
2023-04-08T05:07:35.454Z,2.32
2023-04-08T05:08:35.447Z,2.35
2023-04-08T05:09:35.436Z,2.37
2023-04-08T05:10:35.416Z,2.41
2023-04-08T05:11:35.428Z,2.39
2023-04-08T05:12:35.412Z,2.25
2023-04-08T05:13:35.417Z,2.40
2023-04-08T05:14:35.402Z,2.35
2023-04-08T05:15:35.382Z,2.37
2023-04-08T05:16:35.430Z,2.29
2023-04-08T05:17:35.404Z,2.32
2023-04-08T05:18:35.390Z,2.27
2023-04-08T05:19:35.360Z,2.29
2023-04-08T05:20:35.351Z,2.20
2023-04-08T05:21:35.397Z,2.21
2023-04-08T05:22:35.351Z,2.14
2023-04-08T05:23:35.328Z,2.04
2023-04-08T05:24:35.324Z,2.07
2023-04-08T05:25:35.335Z,2.18
2023-04-08T05:26:35.307Z,2.10
2023-04-08T05:27:35.319Z,2.20
2023-04-08T05:28:35.303Z,2.16
2023-04-08T05:29:35.289Z,2.16
2023-04-08T05:30:35.297Z,2.19
2023-04-08T05:31:35.410Z,2.16
2023-04-08T05:32:35.345Z,2.13
2023-04-08T05:33:35.272Z,2.05
2023-04-08T05:34:35.281Z,2.20
2023-04-08T05:35:35.294Z,2.19
2023-04-08T05:36:35.247Z,2.21
2023-04-08T05:37:35.253Z,2.23
2023-04-08T05:38:35.262Z,2.29
2023-04-08T05:39:35.260Z,2.16
2023-04-08T05:40:35.221Z,2.05
2023-04-08T05:41:35.229Z,2.04
2023-04-08T05:42:35.203Z,2.00
2023-04-08T05:43:35.206Z,2.01
2023-04-08T05:44:35.203Z,2.00
2023-04-08T05:45:35.178Z,1.96
2023-04-08T05:46:35.244Z,2.11
2023-04-08T05:47:35.225Z,2.08
2023-04-08T05:48:35.169Z,1.98
2023-04-08T05:49:35.173Z,2.03
2023-04-08T05:50:35.179Z,2.05
2023-04-08T05:51:35.153Z,1.99
2023-04-08T05:52:35.203Z,1.98
2023-04-08T05:53:35.227Z,2.20
2023-04-08T05:54:35.297Z,2.11
2023-04-08T05:55:35.333Z,2.18
2023-04-08T05:56:35.426Z,2.04
2023-04-08T05:57:35.449Z,2.15
2023-04-08T05:58:35.494Z,2.23
2023-04-08T05:59:35.507Z,2.33
2023-04-08T06:00:35.530Z,2.34
2023-04-08T06:01:35.669Z,2.33
2023-04-08T06:02:35.680Z,2.22
2023-04-08T06:03:35.755Z,2.26
2023-04-08T06:04:35.711Z,2.15
2023-04-08T06:05:35.687Z,2.15
2023-04-08T06:06:35.731Z,2.17
2023-04-08T06:07:35.754Z,2.19
2023-04-08T06:08:35.812Z,2.25
2023-04-08T06:09:35.846Z,2.31
2023-04-08T06:10:35.920Z,2.28
2023-04-08T06:11:35.973Z,2.14
2023-04-08T06:12:36.005Z,2.10
2023-04-08T06:13:36.059Z,2.04
2023-04-08T06:14:36.091Z,2.07
2023-04-08T06:15:36.132Z,2.07
2023-04-08T06:16:36.190Z,2.10
2023-04-08T06:17:36.201Z,2.08
2023-04-08T06:18:36.240Z,2.06
2023-04-08T06:19:36.286Z,2.01
2023-04-08T06:20:36.334Z,2.02
2023-04-08T06:21:36.324Z,2.12
2023-04-08T06:22:36.346Z,2.08
2023-04-08T06:23:36.389Z,2.13
2023-04-08T06:24:36.447Z,2.03
2023-04-08T06:25:36.529Z,1.81
2023-04-08T06:26:36.571Z,1.81
2023-04-08T06:27:36.605Z,1.72
2023-04-08T06:28:36.714Z,1.77
2023-04-08T06:29:36.706Z,1.73
2023-04-08T06:30:36.751Z,1.74
2023-04-08T06:31:36.776Z,1.66
2023-04-08T06:32:36.830Z,1.62
2023-04-08T06:33:36.750Z,1.56
2023-04-08T06:34:36.809Z,1.56
2023-04-08T06:35:36.886Z,1.60
2023-04-08T06:36:36.893Z,1.59
2023-04-08T06:37:36.951Z,1.56
2023-04-08T06:38:37.004Z,1.55
2023-04-08T06:39:37.053Z,1.62
2023-04-08T06:40:37.125Z,1.65
2023-04-08T06:41:37.165Z,1.72
2023-04-08T06:42:37.222Z,1.73
2023-04-08T06:43:37.278Z,1.68
2023-04-08T06:44:37.326Z,1.66
2023-04-08T06:45:37.367Z,1.55
2023-04-08T06:46:37.339Z,1.59
2023-04-08T06:47:37.369Z,1.64
2023-04-08T06:48:37.381Z,1.63
2023-04-08T06:49:37.367Z,1.63
2023-04-08T06:50:37.376Z,1.67
2023-04-08T06:51:37.359Z,1.61
2023-04-08T06:52:37.397Z,1.57
2023-04-08T06:53:37.451Z,1.54
2023-04-08T06:54:37.463Z,1.65
2023-04-08T06:55:37.465Z,1.66
2023-04-08T06:56:37.483Z,1.69
2023-04-08T06:57:37.505Z,1.66
2023-04-08T06:58:37.514Z,1.62
2023-04-08T06:59:37.560Z,1.73
2023-04-08T07:00:37.622Z,1.75
2023-04-08T07:01:37.735Z,1.71
2023-04-08T07:02:37.820Z,1.69
2023-04-08T07:03:37.917Z,1.66
2023-04-08T07:04:37.819Z,1.74
2023-04-08T07:05:37.823Z,1.94
2023-04-08T07:06:37.835Z,2.25
2023-04-08T07:07:37.889Z,2.32
2023-04-08T07:08:37.900Z,2.28
2023-04-08T07:09:37.937Z,2.20
2023-04-08T07:10:37.972Z,2.16
2023-04-08T07:11:38.179Z,2.07
2023-04-08T07:12:38.031Z,2.09
2023-04-08T07:13:38.038Z,2.14
2023-04-08T07:14:38.068Z,2.06
2023-04-08T07:15:38.075Z,2.08
2023-04-08T07:16:38.158Z,2.03
2023-04-08T07:17:38.180Z,1.99
2023-04-08T07:18:38.177Z,1.92
2023-04-08T07:19:38.262Z,1.88
2023-04-08T07:20:38.274Z,1.90
2023-04-08T07:21:38.294Z,1.84
2023-04-08T07:22:38.320Z,1.80
2023-04-08T07:23:38.335Z,1.74
2023-04-08T07:24:38.364Z,1.73
2023-04-08T07:25:38.436Z,1.69
2023-04-08T07:26:38.456Z,1.67
2023-04-08T07:27:38.466Z,1.66
2023-04-08T07:28:38.515Z,1.63
2023-04-08T07:29:38.533Z,1.63
2023-04-08T07:30:38.591Z,1.66
2023-04-08T07:31:38.596Z,1.71
2023-04-08T07:32:38.667Z,1.64
2023-04-08T07:33:38.683Z,1.68
2023-04-08T07:34:38.667Z,1.60
2023-04-08T07:35:38.680Z,1.60
2023-04-08T07:36:38.687Z,1.65
2023-04-08T07:37:38.673Z,1.65
2023-04-08T07:38:38.671Z,1.64
2023-04-08T07:39:38.687Z,1.63
2023-04-08T07:40:38.712Z,1.61
2023-04-08T07:41:38.693Z,1.58
2023-04-08T07:42:40.727Z,1.56
2023-04-08T07:43:38.713Z,1.60
2023-04-08T07:44:38.750Z,1.55
2023-04-08T07:45:38.779Z,1.48
2023-04-08T07:46:38.851Z,1.49
2023-04-08T07:47:38.884Z,1.47
2023-04-08T07:48:38.821Z,1.47
2023-04-08T07:49:38.828Z,1.46
2023-04-08T07:51:08.502Z,1.40
2023-04-08T07:51:39.887Z,1.40
2023-04-08T07:52:38.827Z,1.41
2023-04-08T07:53:38.873Z,1.40
2023-04-08T07:54:38.815Z,1.41
2023-04-08T07:55:38.791Z,1.42
2023-04-08T07:56:38.791Z,1.39
2023-04-08T07:57:38.800Z,1.32
2023-04-08T07:58:38.783Z,1.34
2023-04-08T07:59:38.770Z,1.29
2023-04-08T08:00:38.760Z,1.23
2023-04-08T08:01:38.759Z,1.25
2023-04-08T08:02:38.865Z,1.26
2023-04-08T08:03:38.996Z,1.23
2023-04-08T08:04:38.939Z,1.22
2023-04-08T08:05:38.879Z,1.22
2023-04-08T08:06:38.921Z,1.21
2023-04-08T08:07:38.917Z,1.20
2023-04-08T08:08:38.919Z,1.20
2023-04-08T08:09:38.948Z,1.19
2023-04-08T08:10:38.957Z,1.16
2023-04-08T08:11:39.017Z,1.14
2023-04-08T08:12:39.058Z,1.17
2023-04-08T08:13:39.111Z,1.12
2023-04-08T08:14:39.116Z,1.10
2023-04-08T08:15:39.186Z,1.06
2023-04-08T08:16:39.124Z,1.06
2023-04-08T08:17:39.156Z,1.06
2023-04-08T08:18:39.173Z,1.05
2023-04-08T08:19:39.224Z,1.10
2023-04-08T08:20:39.250Z,1.11
2023-04-08T08:21:39.289Z,1.15
2023-04-08T08:22:47.290Z,1.11
2023-04-08T08:23:40.322Z,1.11
2023-04-08T08:24:39.328Z,1.12
2023-04-08T08:25:39.320Z,1.12
2023-04-08T08:26:39.304Z,1.14
2023-04-08T08:27:39.301Z,1.18
2023-04-08T08:28:39.320Z,1.18
2023-04-08T08:29:39.282Z,1.18
2023-04-08T08:30:39.312Z,1.19
2023-04-08T08:31:39.317Z,1.21
2023-04-08T08:32:39.286Z,1.17
2023-04-08T08:33:39.252Z,1.18
2023-04-08T08:34:39.268Z,1.21
2023-04-08T08:35:39.326Z,1.24
2023-04-08T08:36:39.330Z,1.19
2023-04-08T08:37:39.368Z,1.27
2023-04-08T08:38:39.428Z,1.24
2023-04-08T08:39:39.473Z,1.26
2023-04-08T08:40:39.535Z,1.17
2023-04-08T08:41:39.552Z,1.20
2023-04-08T08:42:39.597Z,1.14
2023-04-08T08:43:39.664Z,1.17
2023-04-08T08:44:39.692Z,1.22
2023-04-08T08:45:39.731Z,1.18
2023-04-08T08:46:39.876Z,1.21
2023-04-08T08:47:39.840Z,1.15
2023-04-08T08:48:39.857Z,1.20
2023-04-08T08:49:39.851Z,1.15
2023-04-08T08:50:39.887Z,1.10
2023-04-08T08:51:39.926Z,1.13
2023-04-08T08:52:39.946Z,1.08
2023-04-08T08:53:39.957Z,1.14
2023-04-08T08:54:39.972Z,1.11
2023-04-08T08:56:40.063Z,1.17
2023-04-08T08:57:40.067Z,1.21
2023-04-08T08:58:40.105Z,1.15
2023-04-08T08:59:40.131Z,1.22
2023-04-08T09:00:40.175Z,1.30
2023-04-08T09:01:40.231Z,1.32
2023-04-08T09:02:40.313Z,1.31
2023-04-08T09:03:40.483Z,1.31
2023-04-08T09:04:40.562Z,1.27
2023-04-08T09:05:40.439Z,1.27
2023-04-08T09:06:40.402Z,1.20
2023-04-08T09:07:40.445Z,1.19
2023-04-08T09:08:40.510Z,1.18
2023-04-08T09:09:40.519Z,1.15
2023-04-08T09:10:40.596Z,1.17
2023-04-08T09:11:40.672Z,1.19
2023-04-08T09:12:40.783Z,1.16
2023-04-08T09:13:40.775Z,1.16
2023-04-08T09:14:40.835Z,1.16
2023-04-08T09:15:40.899Z,1.19
2023-04-08T09:16:40.985Z,1.17
2023-04-08T09:17:41.047Z,1.14
2023-04-08T09:18:41.070Z,1.11
2023-04-08T09:19:41.116Z,1.11
2023-04-08T09:20:41.219Z,1.11
2023-04-08T09:21:41.229Z,1.12
2023-04-08T09:22:41.299Z,1.11
2023-04-08T09:23:41.382Z,1.12
2023-04-08T09:24:41.413Z,1.09
2023-04-08T09:25:41.491Z,1.08
2023-04-08T09:26:41.565Z,1.06
2023-04-08T09:27:41.616Z,1.05
2023-04-08T09:28:41.676Z,1.12
2023-04-08T09:29:41.719Z,1.06
2023-04-08T09:30:41.799Z,1.03
2023-04-08T09:31:41.872Z,1.05
2023-04-08T09:32:41.938Z,1.05
2023-04-08T09:33:42.002Z,1.05
2023-04-08T09:34:42.031Z,1.09
2023-04-08T09:35:42.107Z,1.10
2023-04-08T09:36:42.133Z,1.11
2023-04-08T09:37:42.165Z,1.08
2023-04-08T09:38:42.169Z,1.12
2023-04-08T09:39:42.195Z,1.12
2023-04-08T09:40:42.234Z,1.12
2023-04-08T09:41:42.304Z,1.18
2023-04-08T09:42:42.328Z,1.15
2023-04-08T09:43:42.407Z,1.16
2023-04-08T09:44:42.496Z,1.13
2023-04-08T09:45:42.595Z,1.15
2023-04-08T09:46:42.567Z,1.12
2023-04-08T09:47:42.653Z,1.10
2023-04-08T09:48:42.699Z,1.11
2023-04-08T09:49:42.755Z,1.13
2023-04-08T09:50:42.832Z,1.14
2023-04-08T09:51:42.907Z,1.10
2023-04-08T09:52:42.886Z,1.20
2023-04-08T09:53:42.943Z,1.05
2023-04-08T09:54:42.985Z,1.08
2023-04-08T09:55:43.010Z,1.15
2023-04-08T09:56:43.038Z,1.12
2023-04-08T09:57:43.089Z,1.11
2023-04-08T09:58:43.070Z,1.08
2023-04-08T09:59:43.042Z,1.12
2023-04-08T10:00:43.063Z,1.16
2023-04-08T10:01:43.167Z,1.15
2023-04-08T10:02:43.196Z,1.17
2023-04-08T10:03:43.121Z,1.15
2023-04-08T10:04:43.128Z,1.15
2023-04-08T10:05:43.168Z,1.09
2023-04-08T10:06:43.204Z,1.08
2023-04-08T10:07:43.227Z,1.07
2023-04-08T10:08:43.258Z,1.07
2023-04-08T10:09:43.285Z,1.06
2023-04-08T10:10:43.318Z,1.09
2023-04-08T10:11:43.370Z,1.10
2023-04-08T10:12:43.412Z,1.05
2023-04-08T10:13:43.465Z,1.06
2023-04-08T10:14:43.496Z,1.09
2023-04-08T10:15:43.521Z,1.04
2023-04-08T10:16:43.659Z,1.07
2023-04-08T10:17:43.639Z,1.01
2023-04-08T10:18:43.654Z,0.99
2023-04-08T10:19:43.696Z,0.97
2023-04-08T10:20:43.763Z,0.96
2023-04-08T10:21:43.814Z,1.04
2023-04-08T10:22:43.823Z,1.02
2023-04-08T10:23:43.897Z,1.01
2023-04-08T10:24:43.934Z,0.98
2023-04-08T10:25:43.951Z,0.97
2023-04-08T10:26:44.075Z,0.90
2023-04-08T10:27:44.066Z,0.96
2023-04-08T10:28:44.095Z,1.00
2023-04-08T10:29:44.119Z,0.92
2023-04-08T10:30:44.150Z,0.91
2023-04-08T10:31:44.195Z,0.91
2023-04-08T10:32:44.213Z,0.82
2023-04-08T10:33:44.230Z,0.88
2023-04-08T10:34:44.273Z,0.79
2023-04-08T10:35:44.354Z,0.72
2023-04-08T10:36:44.396Z,0.73
2023-04-08T10:37:44.434Z,0.73
2023-04-08T10:38:44.519Z,0.73
2023-04-08T10:39:44.575Z,0.73
2023-04-08T10:40:44.662Z,0.68
2023-04-08T10:41:44.658Z,0.64
2023-04-08T10:42:44.696Z,0.65
2023-04-08T10:43:44.737Z,0.65
2023-04-08T10:44:44.776Z,0.65
2023-04-08T10:45:47.944Z,0.69
2023-04-08T10:46:44.832Z,0.71
2023-04-08T10:47:44.867Z,0.75
2023-04-08T10:48:44.822Z,0.72
2023-04-08T10:49:44.817Z,0.73
2023-04-08T10:50:44.788Z,0.73
2023-04-08T10:51:44.806Z,0.75
2023-04-08T10:52:44.790Z,0.74
2023-04-08T10:53:44.774Z,0.75
2023-04-08T10:54:44.784Z,0.73
2023-04-08T10:55:44.762Z,0.71
2023-04-08T10:56:44.766Z,0.72
2023-04-08T10:57:44.759Z,0.72
2023-04-08T10:58:44.767Z,0.64
2023-04-08T10:59:44.734Z,0.63
2023-04-08T11:00:44.752Z,0.65
2023-04-08T11:01:44.786Z,0.63
2023-04-08T11:02:44.811Z,0.60
2023-04-08T11:03:44.747Z,0.61
2023-04-08T11:04:44.753Z,0.61
2023-04-08T11:05:44.685Z,0.62
2023-04-08T11:06:44.685Z,0.54
2023-04-08T11:07:44.685Z,0.60
2023-04-08T11:08:44.698Z,0.56
2023-04-08T11:09:44.670Z,0.58
2023-04-08T11:10:44.653Z,0.59
2023-04-08T11:11:44.635Z,0.57
2023-04-08T11:12:44.647Z,0.54
2023-04-08T11:13:52.795Z,0.55
2023-04-08T11:14:46.479Z,0.56
2023-04-08T11:15:44.666Z,0.54
2023-04-08T11:16:44.627Z,0.55
2023-04-08T11:17:44.671Z,0.55
2023-04-08T11:18:44.595Z,0.56
2023-04-08T11:19:44.587Z,0.56
2023-04-08T11:20:44.584Z,0.59
2023-04-08T11:21:44.609Z,0.57
2023-04-08T11:22:44.554Z,0.55
2023-04-08T11:23:44.561Z,0.56
2023-04-08T11:24:44.549Z,0.57
2023-04-08T11:25:44.543Z,0.57
2023-04-08T11:26:44.529Z,0.56
2023-04-08T11:27:44.519Z,0.56
2023-04-08T11:28:44.523Z,0.50
2023-04-08T11:29:44.512Z,0.49
2023-04-08T11:30:44.610Z,0.55
2023-04-08T11:31:44.644Z,0.55
2023-04-08T11:32:44.565Z,0.58
2023-04-08T11:33:44.501Z,0.54
2023-04-08T11:34:44.523Z,0.56
2023-04-08T11:35:44.498Z,0.56
2023-04-08T11:36:44.489Z,0.57
2023-04-08T11:37:44.460Z,0.55
2023-04-08T11:38:44.444Z,0.51
2023-04-08T11:39:44.465Z,0.56
2023-04-08T11:40:44.433Z,0.52
2023-04-08T11:41:44.454Z,0.52
2023-04-08T11:42:46.002Z,0.55
2023-04-08T11:43:44.403Z,0.54
2023-04-08T11:44:44.400Z,0.51
2023-04-08T11:45:44.408Z,0.53
2023-04-08T11:46:44.500Z,0.55
2023-04-08T11:47:44.418Z,0.53
2023-04-08T11:48:44.374Z,0.50
2023-04-08T11:49:44.362Z,0.53
2023-04-08T11:50:44.349Z,0.55
2023-04-08T11:51:44.367Z,0.55
2023-04-08T11:52:44.359Z,0.52
2023-04-08T11:53:44.344Z,0.50
2023-04-08T11:54:44.324Z,0.51
2023-04-08T11:55:44.315Z,0.54
2023-04-08T11:56:44.367Z,0.57
2023-04-08T11:57:44.321Z,0.56
2023-04-08T11:58:44.293Z,0.57
2023-04-08T11:59:44.298Z,0.56
2023-04-08T12:00:44.297Z,0.55
2023-04-08T12:01:44.381Z,0.53
2023-04-08T12:02:44.372Z,0.54
2023-04-08T12:03:44.379Z,0.52
2023-04-08T12:04:44.304Z,0.51
2023-04-08T12:05:44.245Z,0.53
2023-04-08T12:06:44.308Z,0.51
2023-04-08T12:07:44.239Z,0.52
2023-04-08T12:08:44.244Z,0.52
2023-04-08T12:09:44.225Z,0.55
2023-04-08T12:10:44.220Z,0.53
2023-04-08T12:11:44.206Z,0.56
2023-04-08T12:12:44.201Z,0.51
2023-04-08T12:13:44.193Z,0.53
2023-04-08T12:14:44.190Z,0.54
2023-04-08T12:15:44.210Z,0.51
2023-04-08T12:16:44.191Z,0.53
2023-04-08T12:17:44.187Z,0.54
2023-04-08T12:18:44.184Z,0.55
2023-04-08T12:19:44.149Z,0.58
2023-04-08T12:20:44.155Z,0.55
2023-04-08T12:21:44.140Z,0.53
2023-04-08T12:22:44.148Z,0.56
2023-04-08T12:23:44.133Z,0.52
2023-04-08T12:24:44.135Z,0.56
2023-04-08T12:25:44.127Z,0.55
2023-04-08T12:26:44.121Z,0.53
2023-04-08T12:27:44.119Z,0.52
2023-04-08T12:28:44.109Z,0.56
2023-04-08T12:29:44.106Z,0.55
2023-04-08T12:30:44.116Z,0.52
2023-04-08T12:31:44.112Z,0.58
2023-04-08T12:32:44.154Z,0.59
2023-04-08T12:33:44.098Z,0.54
2023-04-08T12:34:44.067Z,0.54
2023-04-08T12:35:44.104Z,0.52
2023-04-08T12:36:44.053Z,0.58
2023-04-08T12:37:44.036Z,0.59
2023-04-08T12:38:44.045Z,0.57
2023-04-08T12:39:44.034Z,0.56
2023-04-08T12:40:44.033Z,0.58
2023-04-08T12:41:44.044Z,0.63
2023-04-08T12:42:44.108Z,0.62
2023-04-08T12:43:44.146Z,0.59
2023-04-08T12:44:44.210Z,0.56
2023-04-08T12:45:44.236Z,0.60
2023-04-08T12:46:44.261Z,0.60
2023-04-08T12:47:44.295Z,0.65
2023-04-08T12:48:44.265Z,0.66
2023-04-08T12:49:49.430Z,0.62
2023-04-08T12:50:45.268Z,0.62
2023-04-08T12:51:44.267Z,0.62
2023-04-08T12:52:44.268Z,0.61
2023-04-08T12:53:44.257Z,0.62
2023-04-08T12:54:44.245Z,0.64
2023-04-08T12:55:45.047Z,0.64
2023-04-08T12:56:44.219Z,0.66
2023-04-08T12:57:44.209Z,0.67
2023-04-08T12:58:44.239Z,0.68
2023-04-08T12:59:44.218Z,0.67
2023-04-08T13:00:44.206Z,0.68
2023-04-08T13:01:44.298Z,0.65
2023-04-08T13:02:44.271Z,0.72
2023-04-08T13:03:46.453Z,0.70
2023-04-08T13:04:44.190Z,0.70
2023-04-08T13:05:44.184Z,0.70
2023-04-08T13:06:44.184Z,0.68
2023-04-08T13:07:44.195Z,0.70
2023-04-08T13:08:44.209Z,0.70
2023-04-08T13:09:45.814Z,0.68
2023-04-08T13:10:44.187Z,0.68
2023-04-08T13:11:44.168Z,0.69
2023-04-08T13:12:44.166Z,0.68
2023-04-08T13:13:44.168Z,0.70
2023-04-08T13:14:44.140Z,0.75
2023-04-08T13:15:44.153Z,0.70
2023-04-08T13:16:44.155Z,0.69
2023-04-08T13:17:44.166Z,0.66
2023-04-08T13:18:44.121Z,0.70
2023-04-08T13:19:44.113Z,0.73